sensor_id;sensor_type;location;lat;lon;timestamp;P1;durP1;ratioP1;P2;durP2;ratioP2
1925;SDS011;964;42.606;23.588;2023-03-23T00:01:24;25.80;;;17.60;;
1925;SDS011;964;42.606;23.588;2023-03-23T00:03:55;29.10;;;19.33;;
1925;SDS011;964;42.606;23.588;2023-03-23T00:06:23;28.40;;;17.47;;
1925;SDS011;964;42.606;23.588;2023-03-23T00:08:54;28.20;;;18.30;;
1925;SDS011;964;42.606;23.588;2023-03-23T00:11:25;29.93;;;18.73;;
1925;SDS011;964;42.606;23.588;2023-03-23T00:14:02;33.33;;;21.23;;
1925;SDS011;964;42.606;23.588;2023-03-23T00:16:29;30.53;;;20.40;;
1925;SDS011;964;42.606;23.588;2023-03-23T00:18:58;29.90;;;18.43;;
1925;SDS011;964;42.606;23.588;2023-03-23T00:21:27;27.03;;;17.40;;
1925;SDS011;964;42.606;23.588;2023-03-23T00:24:01;48.10;;;27.30;;
1925;SDS011;964;42.606;23.588;2023-03-23T00:26:29;30.40;;;19.37;;
1925;SDS011;964;42.606;23.588;2023-03-23T00:28:58;30.93;;;18.87;;
1925;SDS011;964;42.606;23.588;2023-03-23T00:31:26;27.73;;;18.93;;
1925;SDS011;964;42.606;23.588;2023-03-23T00:33:56;35.77;;;22.10;;
1925;SDS011;964;42.606;23.588;2023-03-23T00:36:26;40.97;;;25.27;;
1925;SDS011;964;42.606;23.588;2023-03-23T00:38:53;33.63;;;20.23;;
1925;SDS011;964;42.606;23.588;2023-03-23T00:41:24;31.00;;;18.70;;
1925;SDS011;964;42.606;23.588;2023-03-23T00:43:53;38.37;;;19.73;;
1925;SDS011;964;42.606;23.588;2023-03-23T00:46:21;32.43;;;17.70;;
1925;SDS011;964;42.606;23.588;2023-03-23T00:48:48;35.07;;;18.77;;
1925;SDS011;964;42.606;23.588;2023-03-23T00:51:15;35.43;;;20.53;;
1925;SDS011;964;42.606;23.588;2023-03-23T00:53:42;30.53;;;21.60;;
1925;SDS011;964;42.606;23.588;2023-03-23T00:56:09;36.23;;;22.37;;
1925;SDS011;964;42.606;23.588;2023-03-23T00:58:37;34.33;;;20.77;;
1925;SDS011;964;42.606;23.588;2023-03-23T01:01:04;30.57;;;19.23;;
1925;SDS011;964;42.606;23.588;2023-03-23T01:03:31;28.10;;;18.40;;
1925;SDS011;964;42.606;23.588;2023-03-23T01:06:03;29.23;;;17.50;;
1925;SDS011;964;42.606;23.588;2023-03-23T01:08:33;27.70;;;18.10;;
1925;SDS011;964;42.606;23.588;2023-03-23T01:11:02;29.43;;;18.47;;
1925;SDS011;964;42.606;23.588;2023-03-23T01:13:31;30.40;;;18.33;;
1925;SDS011;964;42.606;23.588;2023-03-23T01:16:00;27.17;;;17.23;;
1925;SDS011;964;42.606;23.588;2023-03-23T01:18:26;26.87;;;17.67;;
1925;SDS011;964;42.606;23.588;2023-03-23T01:20:53;30.87;;;18.47;;
1925;SDS011;964;42.606;23.588;2023-03-23T01:23:20;33.17;;;20.30;;
1925;SDS011;964;42.606;23.588;2023-03-23T01:25:47;39.57;;;24.57;;
1925;SDS011;964;42.606;23.588;2023-03-23T01:28:14;45.67;;;26.60;;
1925;SDS011;964;42.606;23.588;2023-03-23T01:30:41;38.23;;;24.60;;
1925;SDS011;964;42.606;23.588;2023-03-23T01:33:09;34.83;;;23.57;;
1925;SDS011;964;42.606;23.588;2023-03-23T01:35:37;39.00;;;24.83;;
1925;SDS011;964;42.606;23.588;2023-03-23T01:38:04;36.97;;;23.80;;
1925;SDS011;964;42.606;23.588;2023-03-23T01:40:31;33.13;;;20.37;;
1925;SDS011;964;42.606;23.588;2023-03-23T01:42:57;34.47;;;21.40;;
1925;SDS011;964;42.606;23.588;2023-03-23T01:45:29;35.30;;;21.90;;
1925;SDS011;964;42.606;23.588;2023-03-23T01:48:01;34.43;;;19.27;;
1925;SDS011;964;42.606;23.588;2023-03-23T01:50:36;35.77;;;20.37;;
1925;SDS011;964;42.606;23.588;2023-03-23T01:53:09;37.13;;;20.60;;
1925;SDS011;964;42.606;23.588;2023-03-23T01:55:38;37.10;;;23.10;;
1925;SDS011;964;42.606;23.588;2023-03-23T01:58:07;33.93;;;20.13;;
1925;SDS011;964;42.606;23.588;2023-03-23T02:00:35;37.40;;;21.83;;
1925;SDS011;964;42.606;23.588;2023-03-23T02:03:06;34.43;;;22.37;;
1925;SDS011;964;42.606;23.588;2023-03-23T02:05:38;34.87;;;20.07;;
1925;SDS011;964;42.606;23.588;2023-03-23T02:08:07;33.40;;;23.10;;
1925;SDS011;964;42.606;23.588;2023-03-23T02:10:35;34.30;;;21.47;;
1925;SDS011;964;42.606;23.588;2023-03-23T02:13:04;38.43;;;19.13;;
1925;SDS011;964;42.606;23.588;2023-03-23T02:15:34;31.27;;;18.67;;
1925;SDS011;964;42.606;23.588;2023-03-23T02:18:12;35.07;;;20.10;;
1925;SDS011;964;42.606;23.588;2023-03-23T02:24:24;31.67;;;19.60;;
1925;SDS011;964;42.606;23.588;2023-03-23T02:27:00;33.30;;;18.77;;
1925;SDS011;964;42.606;23.588;2023-03-23T02:35:28;70.60;;;23.63;;
1925;SDS011;964;42.606;23.588;2023-03-23T02:38:01;57.90;;;24.33;;
1925;SDS011;964;42.606;23.588;2023-03-23T02:40:33;43.60;;;23.50;;
1925;SDS011;964;42.606;23.588;2023-03-23T02:43:06;39.40;;;22.50;;
1925;SDS011;964;42.606;23.588;2023-03-23T02:45:35;40.60;;;23.10;;
1925;SDS011;964;42.606;23.588;2023-03-23T02:48:04;41.27;;;23.13;;
1925;SDS011;964;42.606;23.588;2023-03-23T02:50:35;37.43;;;22.87;;
1925;SDS011;964;42.606;23.588;2023-03-23T02:53:04;40.70;;;23.60;;
1925;SDS011;964;42.606;23.588;2023-03-23T02:55:36;43.70;;;25.70;;
1925;SDS011;964;42.606;23.588;2023-03-23T02:58:07;38.20;;;24.03;;
1925;SDS011;964;42.606;23.588;2023-03-23T03:00:34;38.37;;;23.00;;
1925;SDS011;964;42.606;23.588;2023-03-23T03:03:00;43.20;;;23.03;;
1925;SDS011;964;42.606;23.588;2023-03-23T03:05:30;43.90;;;28.90;;
1925;SDS011;964;42.606;23.588;2023-03-23T03:08:08;43.03;;;24.03;;
1925;SDS011;964;42.606;23.588;2023-03-23T03:10:42;43.07;;;25.60;;
1925;SDS011;964;42.606;23.588;2023-03-23T03:13:18;42.33;;;24.13;;
1925;SDS011;964;42.606;23.588;2023-03-23T03:15:53;37.40;;;23.27;;
1925;SDS011;964;42.606;23.588;2023-03-23T03:18:23;40.67;;;23.67;;
1925;SDS011;964;42.606;23.588;2023-03-23T03:20:56;38.10;;;22.80;;
1925;SDS011;964;42.606;23.588;2023-03-23T03:23:28;38.57;;;21.47;;
1925;SDS011;964;42.606;23.588;2023-03-23T03:25:58;33.43;;;20.57;;
1925;SDS011;964;42.606;23.588;2023-03-23T03:28:27;33.53;;;21.13;;
1925;SDS011;964;42.606;23.588;2023-03-23T03:30:54;35.57;;;21.80;;
1925;SDS011;964;42.606;23.588;2023-03-23T03:33:25;34.77;;;21.93;;
1925;SDS011;964;42.606;23.588;2023-03-23T03:35:57;38.97;;;22.20;;
1925;SDS011;964;42.606;23.588;2023-03-23T03:38:27;36.37;;;22.57;;
1925;SDS011;964;42.606;23.588;2023-03-23T03:40:54;38.53;;;22.07;;
1925;SDS011;964;42.606;23.588;2023-03-23T03:43:22;38.20;;;20.90;;
1925;SDS011;964;42.606;23.588;2023-03-23T03:45:48;45.10;;;20.67;;
1925;SDS011;964;42.606;23.588;2023-03-23T03:48:15;29.27;;;18.13;;
1925;SDS011;964;42.606;23.588;2023-03-23T03:50:42;37.30;;;20.17;;
1925;SDS011;964;42.606;23.588;2023-03-23T03:53:10;41.23;;;21.80;;
1925;SDS011;964;42.606;23.588;2023-03-23T03:55:36;38.10;;;20.83;;
1925;SDS011;964;42.606;23.588;2023-03-23T03:58:03;33.23;;;19.00;;
1925;SDS011;964;42.606;23.588;2023-03-23T04:00:30;32.20;;;18.43;;
1925;SDS011;964;42.606;23.588;2023-03-23T04:02:57;26.40;;;14.97;;
1925;SDS011;964;42.606;23.588;2023-03-23T04:05:25;25.43;;;13.50;;
1925;SDS011;964;42.606;23.588;2023-03-23T04:07:53;21.57;;;13.70;;
1925;SDS011;964;42.606;23.588;2023-03-23T04:10:28;21.50;;;13.03;;
1925;SDS011;964;42.606;23.588;2023-03-23T04:12:56;16.13;;;11.93;;
1925;SDS011;964;42.606;23.588;2023-03-23T04:15:23;20.47;;;12.60;;
1925;SDS011;964;42.606;23.588;2023-03-23T04:17:50;22.47;;;13.07;;
1925;SDS011;964;42.606;23.588;2023-03-23T04:20:16;23.93;;;12.77;;
1925;SDS011;964;42.606;23.588;2023-03-23T04:22:44;18.60;;;11.47;;
1925;SDS011;964;42.606;23.588;2023-03-23T04:25:14;19.23;;;13.80;;
1925;SDS011;964;42.606;23.588;2023-03-23T04:27:43;20.53;;;12.23;;
1925;SDS011;964;42.606;23.588;2023-03-23T04:30:12;19.67;;;14.50;;
1925;SDS011;964;42.606;23.588;2023-03-23T04:32:39;28.20;;;17.53;;
1925;SDS011;964;42.606;23.588;2023-03-23T04:35:07;30.87;;;18.67;;
1925;SDS011;964;42.606;23.588;2023-03-23T04:37:36;27.60;;;17.40;;
1925;SDS011;964;42.606;23.588;2023-03-23T04:40:04;29.47;;;18.10;;
1925;SDS011;964;42.606;23.588;2023-03-23T04:42:36;40.80;;;23.90;;
1925;SDS011;964;42.606;23.588;2023-03-23T04:45:05;43.90;;;25.53;;
1925;SDS011;964;42.606;23.588;2023-03-23T04:47:35;79.20;;;29.50;;
1925;SDS011;964;42.606;23.588;2023-03-23T04:50:06;97.70;;;28.87;;
1925;SDS011;964;42.606;23.588;2023-03-23T04:52:34;93.10;;;29.70;;
1925;SDS011;964;42.606;23.588;2023-03-23T04:55:02;91.17;;;27.07;;
1925;SDS011;964;42.606;23.588;2023-03-23T04:57:30;91.40;;;31.80;;
1925;SDS011;964;42.606;23.588;2023-03-23T04:59:58;85.10;;;30.07;;
1925;SDS011;964;42.606;23.588;2023-03-23T05:02:26;66.43;;;28.57;;
1925;SDS011;964;42.606;23.588;2023-03-23T05:04:55;89.67;;;27.90;;
1925;SDS011;964;42.606;23.588;2023-03-23T05:14:05;49.83;;;24.90;;
1925;SDS011;964;42.606;23.588;2023-03-23T05:16:32;59.80;;;28.47;;
1925;SDS011;964;42.606;23.588;2023-03-23T05:19:02;65.70;;;30.20;;
1925;SDS011;964;42.606;23.588;2023-03-23T05:21:29;57.00;;;28.53;;
1925;SDS011;964;42.606;23.588;2023-03-23T05:23:56;61.73;;;30.90;;
1925;SDS011;964;42.606;23.588;2023-03-23T05:26:25;64.47;;;32.90;;
1925;SDS011;964;42.606;23.588;2023-03-23T05:28:53;59.33;;;32.67;;
1925;SDS011;964;42.606;23.588;2023-03-23T05:31:21;76.07;;;35.07;;
1925;SDS011;964;42.606;23.588;2023-03-23T05:33:48;56.03;;;33.10;;
1925;SDS011;964;42.606;23.588;2023-03-23T05:36:16;56.13;;;30.30;;
1925;SDS011;964;42.606;23.588;2023-03-23T05:38:42;50.53;;;28.03;;
1925;SDS011;964;42.606;23.588;2023-03-23T05:41:10;55.63;;;29.13;;
1925;SDS011;964;42.606;23.588;2023-03-23T05:43:37;50.27;;;29.80;;
1925;SDS011;964;42.606;23.588;2023-03-23T05:46:04;57.50;;;29.73;;
1925;SDS011;964;42.606;23.588;2023-03-23T05:48:30;53.77;;;30.90;;
1925;SDS011;964;42.606;23.588;2023-03-23T05:50:58;116.03;;;61.30;;
1925;SDS011;964;42.606;23.588;2023-03-23T05:53:26;68.60;;;35.50;;
1925;SDS011;964;42.606;23.588;2023-03-23T05:55:57;73.60;;;41.03;;
1925;SDS011;964;42.606;23.588;2023-03-23T05:58:25;100.37;;;54.67;;
1925;SDS011;964;42.606;23.588;2023-03-23T06:00:51;93.63;;;52.17;;
1925;SDS011;964;42.606;23.588;2023-03-23T06:03:18;67.33;;;33.20;;
1925;SDS011;964;42.606;23.588;2023-03-23T06:05:46;115.27;;;53.57;;
1925;SDS011;964;42.606;23.588;2023-03-23T06:08:12;66.70;;;35.93;;
1925;SDS011;964;42.606;23.588;2023-03-23T06:10:40;78.93;;;40.13;;
1925;SDS011;964;42.606;23.588;2023-03-23T06:13:07;68.50;;;31.77;;
1925;SDS011;964;42.606;23.588;2023-03-23T06:15:34;58.30;;;34.03;;
1925;SDS011;964;42.606;23.588;2023-03-23T06:18:00;54.87;;;31.10;;
1925;SDS011;964;42.606;23.588;2023-03-23T06:20:28;68.20;;;36.40;;
1925;SDS011;964;42.606;23.588;2023-03-23T06:22:55;75.83;;;38.80;;
1925;SDS011;964;42.606;23.588;2023-03-23T06:25:22;67.57;;;39.17;;
1925;SDS011;964;42.606;23.588;2023-03-23T06:27:51;66.90;;;36.23;;
1925;SDS011;964;42.606;23.588;2023-03-23T06:30:18;56.87;;;33.10;;
1925;SDS011;964;42.606;23.588;2023-03-23T06:32:45;56.80;;;32.37;;
1925;SDS011;964;42.606;23.588;2023-03-23T06:35:12;55.20;;;30.37;;
1925;SDS011;964;42.606;23.588;2023-03-23T06:37:40;45.60;;;28.13;;
1925;SDS011;964;42.606;23.588;2023-03-23T06:40:07;52.43;;;28.87;;
1925;SDS011;964;42.606;23.588;2023-03-23T06:42:35;48.73;;;29.10;;
1925;SDS011;964;42.606;23.588;2023-03-23T06:45:04;53.50;;;31.03;;
1925;SDS011;964;42.606;23.588;2023-03-23T06:47:32;56.07;;;29.73;;
1925;SDS011;964;42.606;23.588;2023-03-23T06:49:59;61.40;;;31.57;;
1925;SDS011;964;42.606;23.588;2023-03-23T06:52:26;62.37;;;32.83;;
1925;SDS011;964;42.606;23.588;2023-03-23T06:54:54;51.07;;;27.50;;
1925;SDS011;964;42.606;23.588;2023-03-23T06:57:20;45.53;;;24.47;;
1925;SDS011;964;42.606;23.588;2023-03-23T06:59:47;39.90;;;22.20;;
1925;SDS011;964;42.606;23.588;2023-03-23T07:02:15;37.93;;;22.63;;
1925;SDS011;964;42.606;23.588;2023-03-23T07:04:42;38.00;;;22.50;;
1925;SDS011;964;42.606;23.588;2023-03-23T07:07:09;38.87;;;22.20;;
1925;SDS011;964;42.606;23.588;2023-03-23T07:09:39;39.60;;;22.73;;
1925;SDS011;964;42.606;23.588;2023-03-23T07:12:06;40.47;;;23.10;;
1925;SDS011;964;42.606;23.588;2023-03-23T07:14:33;45.60;;;23.33;;
1925;SDS011;964;42.606;23.588;2023-03-23T07:17:00;37.77;;;22.57;;
1925;SDS011;964;42.606;23.588;2023-03-23T07:19:28;41.30;;;24.47;;
1925;SDS011;964;42.606;23.588;2023-03-23T07:21:54;38.27;;;22.13;;
1925;SDS011;964;42.606;23.588;2023-03-23T07:24:22;40.77;;;25.23;;
1925;SDS011;964;42.606;23.588;2023-03-23T07:26:48;38.23;;;22.87;;
1925;SDS011;964;42.606;23.588;2023-03-23T07:29:16;36.30;;;23.57;;
1925;SDS011;964;42.606;23.588;2023-03-23T07:31:42;34.97;;;21.53;;
1925;SDS011;964;42.606;23.588;2023-03-23T07:34:09;35.10;;;21.90;;
1925;SDS011;964;42.606;23.588;2023-03-23T07:36:37;36.90;;;23.50;;
1925;SDS011;964;42.606;23.588;2023-03-23T07:39:04;39.93;;;25.23;;
1925;SDS011;964;42.606;23.588;2023-03-23T07:41:31;38.40;;;24.33;;
1925;SDS011;964;42.606;23.588;2023-03-23T07:43:58;39.80;;;24.57;;
1925;SDS011;964;42.606;23.588;2023-03-23T07:46:24;36.80;;;23.53;;
1925;SDS011;964;42.606;23.588;2023-03-23T07:48:51;37.45;;;25.10;;
1925;SDS011;964;42.606;23.588;2023-03-23T07:51:18;37.73;;;23.90;;
1925;SDS011;964;42.606;23.588;2023-03-23T07:53:46;35.10;;;22.50;;
1925;SDS011;964;42.606;23.588;2023-03-23T07:56:13;32.40;;;21.57;;
1925;SDS011;964;42.606;23.588;2023-03-23T07:58:43;35.67;;;23.20;;
1925;SDS011;964;42.606;23.588;2023-03-23T08:01:10;29.77;;;20.20;;
1925;SDS011;964;42.606;23.588;2023-03-23T08:03:37;29.60;;;21.20;;
1925;SDS011;964;42.606;23.588;2023-03-23T08:06:04;28.27;;;20.53;;
1925;SDS011;964;42.606;23.588;2023-03-23T08:08:32;32.60;;;21.30;;
1925;SDS011;964;42.606;23.588;2023-03-23T08:11:00;30.80;;;22.10;;
1925;SDS011;964;42.606;23.588;2023-03-23T08:13:27;32.27;;;20.30;;
1925;SDS011;964;42.606;23.588;2023-03-23T08:15:54;27.50;;;19.27;;
1925;SDS011;964;42.606;23.588;2023-03-23T08:18:22;25.97;;;19.53;;
1925;SDS011;964;42.606;23.588;2023-03-23T08:20:49;22.70;;;18.60;;
1925;SDS011;964;42.606;23.588;2023-03-23T08:23:18;27.23;;;18.50;;
1925;SDS011;964;42.606;23.588;2023-03-23T08:25:44;27.33;;;19.77;;
1925;SDS011;964;42.606;23.588;2023-03-23T08:28:12;23.10;;;18.20;;
1925;SDS011;964;42.606;23.588;2023-03-23T08:30:40;24.00;;;18.60;;
1925;SDS011;964;42.606;23.588;2023-03-23T08:33:07;23.00;;;18.50;;
1925;SDS011;964;42.606;23.588;2023-03-23T08:35:35;23.40;;;18.17;;
1925;SDS011;964;42.606;23.588;2023-03-23T08:38:02;22.80;;;18.10;;
1925;SDS011;964;42.606;23.588;2023-03-23T08:40:29;22.93;;;16.07;;
1925;SDS011;964;42.606;23.588;2023-03-23T08:42:57;23.70;;;15.83;;
1925;SDS011;964;42.606;23.588;2023-03-23T08:45:25;19.73;;;16.23;;
1925;SDS011;964;42.606;23.588;2023-03-23T08:47:52;20.80;;;16.50;;
1925;SDS011;964;42.606;23.588;2023-03-23T08:50:21;18.17;;;14.30;;
1925;SDS011;964;42.606;23.588;2023-03-23T08:52:49;26.40;;;14.27;;
1925;SDS011;964;42.606;23.588;2023-03-23T08:55:16;16.87;;;13.43;;
1925;SDS011;964;42.606;23.588;2023-03-23T08:57:43;16.70;;;13.83;;
1925;SDS011;964;42.606;23.588;2023-03-23T09:00:11;16.80;;;13.80;;
1925;SDS011;964;42.606;23.588;2023-03-23T09:02:43;14.53;;;12.40;;
1925;SDS011;964;42.606;23.588;2023-03-23T09:05:12;11.97;;;10.67;;
1925;SDS011;964;42.606;23.588;2023-03-23T09:07:40;8.80;;;7.67;;
1925;SDS011;964;42.606;23.588;2023-03-23T09:10:08;10.27;;;8.70;;
1925;SDS011;964;42.606;23.588;2023-03-23T09:12:35;11.00;;;9.40;;
1925;SDS011;964;42.606;23.588;2023-03-23T09:15:02;12.83;;;9.27;;
1925;SDS011;964;42.606;23.588;2023-03-23T09:17:33;11.50;;;9.50;;
1925;SDS011;964;42.606;23.588;2023-03-23T09:20:01;10.27;;;8.57;;
1925;SDS011;964;42.606;23.588;2023-03-23T09:22:32;8.57;;;7.57;;
1925;SDS011;964;42.606;23.588;2023-03-23T09:24:59;9.50;;;7.17;;
1925;SDS011;964;42.606;23.588;2023-03-23T09:27:26;8.33;;;7.53;;
1925;SDS011;964;42.606;23.588;2023-03-23T09:29:53;8.50;;;7.60;;
1925;SDS011;964;42.606;23.588;2023-03-23T09:32:20;10.13;;;8.23;;
1925;SDS011;964;42.606;23.588;2023-03-23T09:34:47;10.50;;;8.00;;
1925;SDS011;964;42.606;23.588;2023-03-23T09:37:15;9.60;;;8.60;;
1925;SDS011;964;42.606;23.588;2023-03-23T09:39:42;9.13;;;7.60;;
1925;SDS011;964;42.606;23.588;2023-03-23T09:42:16;9.43;;;8.03;;
1925;SDS011;964;42.606;23.588;2023-03-23T09:44:57;9.13;;;8.10;;
1925;SDS011;964;42.606;23.588;2023-03-23T09:47:35;8.73;;;7.80;;
1925;SDS011;964;42.606;23.588;2023-03-23T09:50:09;8.50;;;6.70;;
1925;SDS011;964;42.606;23.588;2023-03-23T09:52:41;8.60;;;7.67;;
1925;SDS011;964;42.606;23.588;2023-03-23T09:55:11;8.30;;;7.40;;
1925;SDS011;964;42.606;23.588;2023-03-23T09:57:43;7.40;;;6.53;;
1925;SDS011;964;42.606;23.588;2023-03-23T10:00:16;7.50;;;6.33;;
1925;SDS011;964;42.606;23.588;2023-03-23T10:02:49;6.40;;;5.80;;
1925;SDS011;964;42.606;23.588;2023-03-23T10:05:30;7.70;;;6.93;;
1925;SDS011;964;42.606;23.588;2023-03-23T10:08:01;6.97;;;6.03;;
1925;SDS011;964;42.606;23.588;2023-03-23T10:10:36;6.90;;;6.30;;
1925;SDS011;964;42.606;23.588;2023-03-23T10:13:13;7.13;;;6.43;;
1925;SDS011;964;42.606;23.588;2023-03-23T10:15:45;9.10;;;6.60;;
1925;SDS011;964;42.606;23.588;2023-03-23T10:18:15;8.60;;;7.67;;
1925;SDS011;964;42.606;23.588;2023-03-23T10:20:48;7.60;;;6.43;;
1925;SDS011;964;42.606;23.588;2023-03-23T10:23:32;8.40;;;7.60;;
1925;SDS011;964;42.606;23.588;2023-03-23T10:26:08;7.97;;;7.10;;
1925;SDS011;964;42.606;23.588;2023-03-23T10:28:43;7.70;;;7.00;;
1925;SDS011;964;42.606;23.588;2023-03-23T10:31:11;9.60;;;8.17;;
1925;SDS011;964;42.606;23.588;2023-03-23T10:33:43;8.67;;;7.50;;
1925;SDS011;964;42.606;23.588;2023-03-23T10:36:12;8.60;;;7.70;;
1925;SDS011;964;42.606;23.588;2023-03-23T10:38:45;8.57;;;7.77;;
1925;SDS011;964;42.606;23.588;2023-03-23T10:41:16;9.90;;;8.47;;
1925;SDS011;964;42.606;23.588;2023-03-23T10:43:46;9.07;;;7.90;;
1925;SDS011;964;42.606;23.588;2023-03-23T10:46:18;9.37;;;8.03;;
1925;SDS011;964;42.606;23.588;2023-03-23T10:48:52;9.00;;;8.10;;
1925;SDS011;964;42.606;23.588;2023-03-23T10:51:24;10.67;;;8.60;;
1925;SDS011;964;42.606;23.588;2023-03-23T10:53:58;11.20;;;7.53;;
1925;SDS011;964;42.606;23.588;2023-03-23T10:56:27;11.90;;;7.97;;
1925;SDS011;964;42.606;23.588;2023-03-23T10:58:55;9.03;;;7.33;;
1925;SDS011;964;42.606;23.588;2023-03-23T11:01:28;9.80;;;7.50;;
1925;SDS011;964;42.606;23.588;2023-03-23T11:03:57;8.20;;;6.90;;
1925;SDS011;964;42.606;23.588;2023-03-23T11:06:26;7.63;;;6.27;;
1925;SDS011;964;42.606;23.588;2023-03-23T11:09:01;9.27;;;7.27;;
1925;SDS011;964;42.606;23.588;2023-03-23T11:11:37;8.90;;;7.77;;
1925;SDS011;964;42.606;23.588;2023-03-23T11:14:13;9.10;;;8.07;;
1925;SDS011;964;42.606;23.588;2023-03-23T11:16:43;8.97;;;7.77;;
1925;SDS011;964;42.606;23.588;2023-03-23T11:19:12;8.13;;;7.33;;
1925;SDS011;964;42.606;23.588;2023-03-23T11:21:40;8.17;;;6.87;;
1925;SDS011;964;42.606;23.588;2023-03-23T11:24:14;9.37;;;7.53;;
1925;SDS011;964;42.606;23.588;2023-03-23T11:26:42;8.07;;;7.27;;
1925;SDS011;964;42.606;23.588;2023-03-23T11:29:12;8.27;;;7.47;;
1925;SDS011;964;42.606;23.588;2023-03-23T11:31:43;9.43;;;7.17;;
1925;SDS011;964;42.606;23.588;2023-03-23T11:34:13;8.20;;;7.30;;
1925;SDS011;964;42.606;23.588;2023-03-23T11:36:41;9.73;;;7.80;;
1925;SDS011;964;42.606;23.588;2023-03-23T11:39:22;9.37;;;7.57;;
1925;SDS011;964;42.606;23.588;2023-03-23T11:41:51;8.27;;;7.57;;
1925;SDS011;964;42.606;23.588;2023-03-23T11:44:19;10.27;;;7.20;;
1925;SDS011;964;42.606;23.588;2023-03-23T11:46:49;8.70;;;7.20;;
1925;SDS011;964;42.606;23.588;2023-03-23T11:49:27;9.30;;;8.40;;
1925;SDS011;964;42.606;23.588;2023-03-23T11:52:05;7.10;;;6.40;;
1925;SDS011;964;42.606;23.588;2023-03-23T11:54:40;7.70;;;7.00;;
1925;SDS011;964;42.606;23.588;2023-03-23T11:57:13;7.93;;;7.13;;
1925;SDS011;964;42.606;23.588;2023-03-23T11:59:41;7.30;;;6.60;;
1925;SDS011;964;42.606;23.588;2023-03-23T12:05:18;8.37;;;7.60;;
1925;SDS011;964;42.606;23.588;2023-03-23T12:07:58;8.50;;;6.90;;
1925;SDS011;964;42.606;23.588;2023-03-23T12:10:40;7.30;;;6.20;;
1925;SDS011;964;42.606;23.588;2023-03-23T12:13:23;9.13;;;8.23;;
1925;SDS011;964;42.606;23.588;2023-03-23T12:16:03;7.20;;;6.50;;
1925;SDS011;964;42.606;23.588;2023-03-23T12:18:40;7.57;;;6.77;;
1925;SDS011;964;42.606;23.588;2023-03-23T12:21:15;7.30;;;6.60;;
1925;SDS011;964;42.606;23.588;2023-03-23T12:23:50;8.23;;;6.73;;
1925;SDS011;964;42.606;23.588;2023-03-23T12:26:24;10.10;;;7.87;;
1925;SDS011;964;42.606;23.588;2023-03-23T12:29:03;13.10;;;9.50;;
1925;SDS011;964;42.606;23.588;2023-03-23T12:31:42;8.23;;;7.53;;
1925;SDS011;964;42.606;23.588;2023-03-23T12:34:17;8.87;;;7.13;;
1925;SDS011;964;42.606;23.588;2023-03-23T12:36:55;8.60;;;6.80;;
1925;SDS011;964;42.606;23.588;2023-03-23T12:39:43;7.73;;;7.03;;
1925;SDS011;964;42.606;23.588;2023-03-23T12:42:23;7.73;;;6.90;;
1925;SDS011;964;42.606;23.588;2023-03-23T12:44:59;10.00;;;8.40;;
1925;SDS011;964;42.606;23.588;2023-03-23T12:47:39;7.80;;;7.00;;
1925;SDS011;964;42.606;23.588;2023-03-23T12:50:11;8.07;;;6.90;;
1925;SDS011;964;42.606;23.588;2023-03-23T12:52:45;7.67;;;6.90;;
1925;SDS011;964;42.606;23.588;2023-03-23T12:55:18;7.87;;;7.07;;
1925;SDS011;964;42.606;23.588;2023-03-23T12:57:52;7.97;;;7.17;;
1925;SDS011;964;42.606;23.588;2023-03-23T13:00:25;7.60;;;6.80;;
1925;SDS011;964;42.606;23.588;2023-03-23T13:02:57;7.07;;;6.37;;
1925;SDS011;964;42.606;23.588;2023-03-23T13:05:39;7.50;;;6.80;;
1925;SDS011;964;42.606;23.588;2023-03-23T13:08:11;7.20;;;6.17;;
1925;SDS011;964;42.606;23.588;2023-03-23T13:10:43;7.10;;;6.17;;
1925;SDS011;964;42.606;23.588;2023-03-23T13:13:16;7.17;;;6.53;;
1925;SDS011;964;42.606;23.588;2023-03-23T13:15:48;7.00;;;6.30;;
1925;SDS011;964;42.606;23.588;2023-03-23T13:18:27;7.27;;;6.37;;
1925;SDS011;964;42.606;23.588;2023-03-23T13:21:06;6.60;;;6.00;;
1925;SDS011;964;42.606;23.588;2023-03-23T13:23:41;6.20;;;5.50;;
1925;SDS011;964;42.606;23.588;2023-03-23T13:26:12;7.07;;;6.37;;
1925;SDS011;964;42.606;23.588;2023-03-23T13:31:39;6.77;;;6.17;;
1925;SDS011;964;42.606;23.588;2023-03-23T13:34:10;6.83;;;6.23;;
1925;SDS011;964;42.606;23.588;2023-03-23T13:36:42;7.80;;;6.33;;
1925;SDS011;964;42.606;23.588;2023-03-23T13:39:17;7.23;;;6.50;;
1925;SDS011;964;42.606;23.588;2023-03-23T13:41:46;6.17;;;5.67;;
1925;SDS011;964;42.606;23.588;2023-03-23T13:44:19;6.47;;;5.60;;
1925;SDS011;964;42.606;23.588;2023-03-23T13:47:04;7.40;;;5.73;;
1925;SDS011;964;42.606;23.588;2023-03-23T13:49:44;7.17;;;6.07;;
1925;SDS011;964;42.606;23.588;2023-03-23T13:52:16;7.97;;;5.70;;
1925;SDS011;964;42.606;23.588;2023-03-23T13:54:49;5.50;;;5.00;;
1925;SDS011;964;42.606;23.588;2023-03-23T13:57:23;5.50;;;5.00;;
1925;SDS011;964;42.606;23.588;2023-03-23T14:00:08;6.13;;;5.53;;
1925;SDS011;964;42.606;23.588;2023-03-23T14:02:52;6.77;;;5.70;;
1925;SDS011;964;42.606;23.588;2023-03-23T14:05:31;6.47;;;5.87;;
1925;SDS011;964;42.606;23.588;2023-03-23T14:08:01;6.43;;;5.73;;
1925;SDS011;964;42.606;23.588;2023-03-23T14:10:38;5.67;;;5.13;;
1925;SDS011;964;42.606;23.588;2023-03-23T14:13:10;5.53;;;4.50;;
1925;SDS011;964;42.606;23.588;2023-03-23T14:15:44;6.40;;;5.80;;
1925;SDS011;964;42.606;23.588;2023-03-23T14:18:19;5.70;;;4.97;;
1925;SDS011;964;42.606;23.588;2023-03-23T14:20:49;5.57;;;4.97;;
1925;SDS011;964;42.606;23.588;2023-03-23T14:23:17;6.00;;;5.43;;
1925;SDS011;964;42.606;23.588;2023-03-23T14:25:54;6.53;;;5.67;;
1925;SDS011;964;42.606;23.588;2023-03-23T14:28:23;5.87;;;5.27;;
1925;SDS011;964;42.606;23.588;2023-03-23T14:30:53;5.30;;;4.73;;
1925;SDS011;964;42.606;23.588;2023-03-23T14:33:22;5.50;;;5.00;;
1925;SDS011;964;42.606;23.588;2023-03-23T14:35:51;5.60;;;5.10;;
1925;SDS011;964;42.606;23.588;2023-03-23T14:38:19;6.10;;;4.80;;
1925;SDS011;964;42.606;23.588;2023-03-23T14:40:48;5.33;;;4.43;;
1925;SDS011;964;42.606;23.588;2023-03-23T14:43:16;6.33;;;5.73;;
1925;SDS011;964;42.606;23.588;2023-03-23T14:45:46;5.73;;;5.00;;
1925;SDS011;964;42.606;23.588;2023-03-23T14:48:17;5.20;;;4.63;;
1925;SDS011;964;42.606;23.588;2023-03-23T14:50:48;5.97;;;4.40;;
1925;SDS011;964;42.606;23.588;2023-03-23T14:53:17;6.20;;;5.60;;
1925;SDS011;964;42.606;23.588;2023-03-23T14:55:48;6.20;;;5.60;;
1925;SDS011;964;42.606;23.588;2023-03-23T14:58:16;5.80;;;5.23;;
1925;SDS011;964;42.606;23.588;2023-03-23T15:00:45;5.37;;;4.67;;
1925;SDS011;964;42.606;23.588;2023-03-23T15:03:17;6.13;;;5.30;;
1925;SDS011;964;42.606;23.588;2023-03-23T15:05:46;5.60;;;4.93;;
1925;SDS011;964;42.606;23.588;2023-03-23T15:08:18;7.07;;;4.77;;
1925;SDS011;964;42.606;23.588;2023-03-23T15:10:53;5.63;;;5.13;;
1925;SDS011;964;42.606;23.588;2023-03-23T15:13:21;5.73;;;5.13;;
1925;SDS011;964;42.606;23.588;2023-03-23T15:15:48;6.90;;;5.90;;
1925;SDS011;964;42.606;23.588;2023-03-23T15:21:07;6.90;;;5.73;;
1925;SDS011;964;42.606;23.588;2023-03-23T15:23:35;8.43;;;5.73;;
1925;SDS011;964;42.606;23.588;2023-03-23T15:26:15;8.33;;;6.60;;
1925;SDS011;964;42.606;23.588;2023-03-23T15:28:48;7.73;;;5.00;;
1925;SDS011;964;42.606;23.588;2023-03-23T15:31:15;8.00;;;5.80;;
1925;SDS011;964;42.606;23.588;2023-03-23T15:33:43;8.07;;;5.60;;
1925;SDS011;964;42.606;23.588;2023-03-23T15:36:14;8.17;;;4.70;;
1925;SDS011;964;42.606;23.588;2023-03-23T15:38:43;6.00;;;5.13;;
1925;SDS011;964;42.606;23.588;2023-03-23T15:41:19;6.20;;;5.57;;